createdAt,value
2022-12-31T00:01:51.816Z,30.83
2022-12-31T00:04:18.686Z,33.90
2022-12-31T00:06:46.289Z,40.88
2022-12-31T00:09:13.360Z,39.55
2022-12-31T00:11:40.377Z,31.08
2022-12-31T00:14:07.753Z,37.50
2022-12-31T00:16:37.870Z,30.20
2022-12-31T00:19:06.337Z,35.50
2022-12-31T00:21:34.098Z,31.17
2022-12-31T00:24:02.361Z,32.08
2022-12-31T00:26:31.827Z,30.52
2022-12-31T00:29:00.627Z,30.90
2022-12-31T00:31:27.427Z,26.73
2022-12-31T00:33:54.583Z,24.70
2022-12-31T00:36:23.888Z,23.67
2022-12-31T00:38:52.616Z,24.42
2022-12-31T00:41:21.203Z,29.92
2022-12-31T00:43:48.605Z,29.52
2022-12-31T00:46:15.956Z,32.35
2022-12-31T00:48:43.634Z,27.17
2022-12-31T00:51:13.425Z,24.30
2022-12-31T00:53:40.409Z,23.65
2022-12-31T00:56:13.318Z,25.60
2022-12-31T00:58:40.572Z,30.00
2022-12-31T01:01:16.571Z,26.23
2022-12-31T01:03:44.157Z,24.63
2022-12-31T01:06:11.217Z,27.42
2022-12-31T01:08:38.136Z,22.20
2022-12-31T01:11:22.763Z,25.13
2022-12-31T01:13:57.374Z,23.02
2022-12-31T01:16:32.649Z,21.25
2022-12-31T01:19:07.005Z,26.17
2022-12-31T01:21:36.018Z,23.10
2022-12-31T01:24:02.830Z,23.67
2022-12-31T01:26:30.132Z,23.42
2022-12-31T01:28:57.046Z,19.02
2022-12-31T01:31:24.713Z,19.50
2022-12-31T01:33:52.593Z,16.73
2022-12-31T01:36:26.279Z,14.15
2022-12-31T01:38:55.671Z,17.35
2022-12-31T01:41:33.839Z,18.98
2022-12-31T01:44:02.712Z,20.15
2022-12-31T01:46:29.631Z,20.17
2022-12-31T01:49:00.317Z,22.05
2022-12-31T01:51:31.713Z,22.77
2022-12-31T01:54:00.464Z,23.35
2022-12-31T01:56:27.450Z,18.90
2022-12-31T01:58:57.429Z,19.75
2022-12-31T02:01:31.236Z,18.58
2022-12-31T02:04:04.012Z,16.30
2022-12-31T02:06:39.512Z,17.35
2022-12-31T02:09:07.491Z,18.77
2022-12-31T02:11:37.914Z,15.95
2022-12-31T02:14:09.462Z,17.33
2022-12-31T02:16:50.805Z,18.08
2022-12-31T02:19:45.239Z,16.55
2022-12-31T02:22:43.167Z,16.70
2022-12-31T02:25:20.638Z,16.83
2022-12-31T02:28:09.011Z,13.60
2022-12-31T02:30:37.475Z,12.23
2022-12-31T02:33:25.647Z,13.35
2022-12-31T02:36:01.245Z,13.20
2022-12-31T02:38:32.754Z,12.65
2022-12-31T02:41:00.862Z,15.02
2022-12-31T02:43:28.086Z,14.18
2022-12-31T02:46:06.166Z,14.40
2022-12-31T02:49:02.435Z,14.25
2022-12-31T02:51:46.787Z,13.90
2022-12-31T02:54:32.079Z,13.68
2022-12-31T02:57:20.540Z,15.15
2022-12-31T03:00:17.799Z,14.73
2022-12-31T03:02:47.263Z,13.25
2022-12-31T03:05:15.936Z,14.02
2022-12-31T03:07:44.109Z,17.60
2022-12-31T03:10:11.025Z,20.35
2022-12-31T03:12:46.827Z,17.30
2022-12-31T03:15:22.627Z,19.50
2022-12-31T03:18:09.712Z,18.10
2022-12-31T03:21:00.851Z,20.15
2022-12-31T03:23:27.647Z,18.13
2022-12-31T03:25:56.513Z,15.07
2022-12-31T03:28:26.509Z,16.95
2022-12-31T03:30:59.609Z,19.42
2022-12-31T03:33:31.924Z,17.38
2022-12-31T03:35:58.772Z,19.10
2022-12-31T03:38:25.660Z,23.38
2022-12-31T03:40:53.339Z,26.25
2022-12-31T03:43:20.686Z,24.17
2022-12-31T03:45:52.489Z,21.95
2022-12-31T03:48:21.070Z,22.00
2022-12-31T03:50:48.215Z,21.67
2022-12-31T03:53:15.539Z,20.85
2022-12-31T03:55:42.414Z,22.10
2022-12-31T03:58:09.354Z,21.60
2022-12-31T04:00:36.483Z,21.85
2022-12-31T04:03:03.344Z,21.05
2022-12-31T04:05:30.213Z,19.45
2022-12-31T04:07:57.038Z,20.65
2022-12-31T04:10:23.937Z,23.00
2022-12-31T04:12:51.082Z,21.15
2022-12-31T04:15:20.611Z,19.05
2022-12-31T04:17:48.561Z,19.98
2022-12-31T04:20:16.466Z,19.17
2022-12-31T04:22:44.379Z,21.33
2022-12-31T04:25:11.606Z,24.60
2022-12-31T04:27:43.897Z,21.67
2022-12-31T04:30:12.376Z,25.30
2022-12-31T04:32:39.434Z,24.65
2022-12-31T04:35:07.536Z,20.27
2022-12-31T04:37:34.761Z,19.58
2022-12-31T04:40:05.840Z,19.80
2022-12-31T04:42:34.315Z,21.08
2022-12-31T04:45:01.184Z,20.45
2022-12-31T04:47:28.093Z,20.55
2022-12-31T04:49:54.923Z,19.05
2022-12-31T04:52:22.477Z,18.88
2022-12-31T04:54:49.475Z,17.48
2022-12-31T04:57:16.431Z,18.20
2022-12-31T04:59:43.459Z,18.95
2022-12-31T05:02:10.531Z,17.83
2022-12-31T05:04:37.488Z,18.88
2022-12-31T05:07:04.333Z,17.33
2022-12-31T05:09:31.283Z,21.05
2022-12-31T05:11:58.270Z,20.88
2022-12-31T05:14:25.802Z,20.05
2022-12-31T05:16:53.654Z,21.20
2022-12-31T05:19:20.656Z,31.58
2022-12-31T05:22:07.471Z,26.95
2022-12-31T05:24:34.314Z,24.92
2022-12-31T05:27:01.224Z,29.83
2022-12-31T05:29:28.038Z,27.10
2022-12-31T05:31:55.012Z,31.73
2022-12-31T05:34:21.816Z,57.55
2022-12-31T05:36:48.623Z,65.45
2022-12-31T05:39:15.465Z,49.70
2022-12-31T05:41:42.312Z,39.03
2022-12-31T05:44:11.072Z,34.60
2022-12-31T05:46:37.927Z,32.83
2022-12-31T05:49:05.072Z,32.28
2022-12-31T05:51:31.933Z,26.08
2022-12-31T05:53:58.807Z,27.80
2022-12-31T05:56:25.705Z,21.45
2022-12-31T05:58:52.522Z,21.90
2022-12-31T06:01:19.371Z,22.00
2022-12-31T06:03:46.795Z,21.08
2022-12-31T06:06:14.022Z,47.90
2022-12-31T06:08:40.908Z,53.70
2022-12-31T06:11:08.099Z,30.65
2022-12-31T06:13:34.887Z,22.85
2022-12-31T06:16:09.739Z,21.00
2022-12-31T06:18:37.509Z,21.92
2022-12-31T06:21:04.658Z,24.67
2022-12-31T06:23:31.586Z,24.23
2022-12-31T06:26:05.479Z,20.02
2022-12-31T06:28:32.745Z,22.58
2022-12-31T06:31:00.898Z,18.50
2022-12-31T06:33:27.977Z,18.55
2022-12-31T06:36:05.871Z,21.13
2022-12-31T06:38:34.391Z,16.10
2022-12-31T06:41:05.343Z,20.77
2022-12-31T06:43:32.413Z,17.98
2022-12-31T06:46:07.746Z,20.38
2022-12-31T06:48:34.938Z,19.55
2022-12-31T06:51:10.613Z,17.60
2022-12-31T06:53:40.466Z,20.55
2022-12-31T06:56:08.620Z,22.33
2022-12-31T06:58:36.027Z,25.05
2022-12-31T07:01:25.758Z,29.10
2022-12-31T07:04:38.480Z,26.08
2022-12-31T07:07:26.441Z,28.83
2022-12-31T07:10:00.207Z,23.92
2022-12-31T07:12:51.754Z,28.50
2022-12-31T07:15:48.058Z,24.92
2022-12-31T07:18:42.055Z,32.35
2022-12-31T07:21:16.073Z,26.85
2022-12-31T07:23:43.467Z,29.42
2022-12-31T07:26:30.421Z,38.55
2022-12-31T07:29:18.569Z,51.08
2022-12-31T07:32:02.367Z,22.88
2022-12-31T07:34:55.351Z,24.08
2022-12-31T07:37:27.983Z,44.63
2022-12-31T07:39:57.393Z,49.30
2022-12-31T07:42:52.456Z,46.90
2022-12-31T07:45:19.249Z,40.97
2022-12-31T07:47:46.401Z,33.65
2022-12-31T07:50:18.420Z,34.78
2022-12-31T07:52:46.610Z,31.98
2022-12-31T07:55:13.441Z,31.58
2022-12-31T07:58:15.476Z,34.50
2022-12-31T08:00:42.577Z,25.20
2022-12-31T08:03:15.495Z,24.27
2022-12-31T08:06:11.077Z,45.13
2022-12-31T08:08:51.493Z,24.55
2022-12-31T08:11:47.335Z,25.80
2022-12-31T08:14:15.459Z,24.75
2022-12-31T08:16:42.758Z,22.95
2022-12-31T08:19:25.700Z,24.65
2022-12-31T08:22:06.720Z,26.10
2022-12-31T08:24:58.802Z,26.10
2022-12-31T08:28:02.959Z,23.83
2022-12-31T08:30:52.343Z,26.25
2022-12-31T08:33:37.072Z,21.38
2022-12-31T08:36:39.078Z,20.35
2022-12-31T08:39:24.138Z,24.75
2022-12-31T08:41:55.138Z,26.70
2022-12-31T08:44:44.218Z,20.33
2022-12-31T08:47:16.971Z,20.30
2022-12-31T08:49:44.059Z,22.02
2022-12-31T08:52:16.341Z,19.95
2022-12-31T08:54:43.531Z,22.33
2022-12-31T08:57:28.770Z,22.15
2022-12-31T09:00:11.975Z,20.02
2022-12-31T09:03:08.069Z,19.58
2022-12-31T09:05:58.875Z,25.98
2022-12-31T09:08:53.009Z,21.02
2022-12-31T09:11:32.839Z,29.13
2022-12-31T09:14:17.634Z,20.60
2022-12-31T09:16:52.514Z,24.30
2022-12-31T09:19:19.635Z,24.58
2022-12-31T09:21:46.804Z,23.70
2022-12-31T09:24:15.569Z,20.73
2022-12-31T09:26:58.141Z,24.08
2022-12-31T09:29:30.821Z,25.92
2022-12-31T09:32:36.324Z,28.45
2022-12-31T09:35:15.716Z,21.45
2022-12-31T09:37:51.006Z,21.30
2022-12-31T09:40:42.845Z,20.85
2022-12-31T09:43:42.696Z,25.30
2022-12-31T09:46:27.338Z,22.17
2022-12-31T09:49:21.898Z,22.88
2022-12-31T09:52:00.242Z,20.17
2022-12-31T09:54:30.154Z,19.40
2022-12-31T09:57:04.684Z,23.45
2022-12-31T09:59:44.140Z,19.92
2022-12-31T10:02:33.057Z,20.65
2022-12-31T10:05:25.636Z,24.45
2022-12-31T10:08:12.839Z,23.02
2022-12-31T10:10:53.752Z,26.65
2022-12-31T10:13:41.025Z,23.95
2022-12-31T10:16:18.819Z,21.95
2022-12-31T10:19:13.360Z,25.88
2022-12-31T10:22:14.451Z,22.70
2022-12-31T10:24:44.186Z,29.50
2022-12-31T10:27:32.458Z,23.58
2022-12-31T10:30:17.679Z,22.67
2022-12-31T10:32:44.669Z,21.25
2022-12-31T10:35:21.119Z,20.50
2022-12-31T10:38:04.538Z,22.17
2022-12-31T10:40:58.258Z,24.77
2022-12-31T10:43:50.489Z,22.35
2022-12-31T10:46:56.773Z,24.80
2022-12-31T10:49:54.564Z,30.58
2022-12-31T10:52:27.110Z,26.70
2022-12-31T10:55:13.209Z,28.77
2022-12-31T10:57:51.662Z,30.80
2022-12-31T11:00:21.045Z,32.35
2022-12-31T11:03:02.077Z,33.65
2022-12-31T11:06:06.023Z,30.27
2022-12-31T11:09:19.342Z,32.13
2022-12-31T11:12:10.799Z,33.72
2022-12-31T11:15:13.076Z,29.33
2022-12-31T11:18:13.896Z,31.08
2022-12-31T11:20:58.108Z,30.88
2022-12-31T11:24:13.281Z,32.60
2022-12-31T11:27:01.612Z,27.38
2022-12-31T11:29:49.244Z,29.25
2022-12-31T11:32:53.786Z,28.83
2022-12-31T11:35:31.497Z,27.50
2022-12-31T11:38:49.274Z,26.90
2022-12-31T11:41:39.761Z,28.40
2022-12-31T11:44:24.908Z,28.75
2022-12-31T11:46:54.709Z,30.15
2022-12-31T11:49:52.253Z,28.00
2022-12-31T11:52:43.662Z,27.58
2022-12-31T11:55:21.353Z,26.27
2022-12-31T11:57:52.378Z,27.17
2022-12-31T12:02:54.988Z,28.83
2022-12-31T12:05:26.278Z,36.08
2022-12-31T12:07:54.368Z,26.33
2022-12-31T12:10:44.714Z,29.02
2022-12-31T12:13:26.841Z,30.60
2022-12-31T12:15:59.577Z,29.60
2022-12-31T12:18:33.746Z,24.88
2022-12-31T12:21:10.788Z,26.83
2022-12-31T12:23:38.943Z,24.48
2022-12-31T12:26:07.399Z,33.10
2022-12-31T12:28:46.048Z,24.50
2022-12-31T12:31:22.533Z,21.95
2022-12-31T12:33:52.173Z,24.45
2022-12-31T12:36:21.002Z,24.80
2022-12-31T12:38:48.288Z,23.67
2022-12-31T12:41:25.456Z,26.45
2022-12-31T12:44:14.801Z,23.08
2022-12-31T12:46:48.692Z,22.80
2022-12-31T12:49:40.491Z,26.48
2022-12-31T12:52:24.119Z,21.05
2022-12-31T12:55:06.173Z,29.98
2022-12-31T12:57:45.519Z,27.20
2022-12-31T13:00:17.612Z,24.25
2022-12-31T13:03:18.441Z,22.00
2022-12-31T13:05:57.276Z,28.15
2022-12-31T13:08:27.187Z,22.42
2022-12-31T13:11:06.391Z,21.75
2022-12-31T13:13:45.378Z,22.58
2022-12-31T13:16:22.920Z,20.23
2022-12-31T13:19:05.042Z,23.90
2022-12-31T13:22:16.520Z,19.42
2022-12-31T13:25:02.563Z,25.30
2022-12-31T13:27:43.924Z,23.90
2022-12-31T13:30:18.428Z,23.02
2022-12-31T13:32:53.180Z,20.10
2022-12-31T13:35:27.198Z,22.25
2022-12-31T13:38:05.627Z,23.77
2022-12-31T13:41:21.359Z,24.13
2022-12-31T13:44:04.833Z,29.95
2022-12-31T13:46:42.831Z,31.17
2022-12-31T13:51:52.628Z,21.33
2022-12-31T13:54:51.459Z,24.13
2022-12-31T13:57:48.934Z,25.33
2022-12-31T14:00:21.701Z,20.55
2022-12-31T14:03:24.055Z,22.95
2022-12-31T14:06:32.605Z,19.83
2022-12-31T14:08:59.745Z,24.08
2022-12-31T14:11:53.301Z,21.92
2022-12-31T14:14:31.509Z,24.15
2022-12-31T14:17:04.219Z,24.55
2022-12-31T14:20:04.889Z,27.83
2022-12-31T14:22:56.935Z,31.50
2022-12-31T14:25:27.199Z,31.65
2022-12-31T14:27:57.075Z,30.80
2022-12-31T14:30:31.017Z,46.60
2022-12-31T14:33:33.254Z,42.22
2022-12-31T14:36:10.363Z,63.70
2022-12-31T14:38:56.404Z,35.22
2022-12-31T14:41:35.011Z,42.22
2022-12-31T14:44:32.943Z,59.95
2022-12-31T14:47:13.713Z,69.68
2022-12-31T14:49:49.973Z,80.07
2022-12-31T14:52:26.678Z,67.20
2022-12-31T14:55:03.959Z,53.15
2022-12-31T14:58:01.729Z,55.00
2022-12-31T15:00:40.197Z,52.47
2022-12-31T15:03:24.416Z,51.17
2022-12-31T15:06:06.613Z,49.00
2022-12-31T15:08:49.373Z,44.80
2022-12-31T15:11:22.931Z,50.75
2022-12-31T15:13:56.185Z,55.65
2022-12-31T15:16:44.845Z,68.22
2022-12-31T15:19:43.530Z,52.97
2022-12-31T15:22:48.467Z,62.88
2022-12-31T15:25:38.418Z,78.32
2022-12-31T15:28:23.755Z,95.70
2022-12-31T15:30:51.700Z,82.93
2022-12-31T15:33:29.684Z,89.50
2022-12-31T15:35:57.857Z,65.35
2022-12-31T15:38:32.749Z,87.05
2022-12-31T15:41:00.570Z,93.97
2022-12-31T15:43:50.870Z,124.22
2022-12-31T15:46:25.728Z,220.20
2022-12-31T15:49:10.349Z,258.73
2022-12-31T15:51:49.404Z,176.13
2022-12-31T15:54:47.915Z,144.50
2022-12-31T15:57:31.498Z,160.63
2022-12-31T16:00:00.216Z,151.77
2022-12-31T16:02:29.075Z,162.75
2022-12-31T16:04:56.341Z,162.10
2022-12-31T16:07:26.482Z,117.20
2022-12-31T16:09:57.269Z,114.10
2022-12-31T16:12:32.713Z,109.35
2022-12-31T16:15:02.167Z,111.15
2022-12-31T16:17:36.975Z,108.93
2022-12-31T16:20:23.395Z,131.20
2022-12-31T16:22:53.493Z,133.68
2022-12-31T16:25:36.561Z,158.18
2022-12-31T16:28:03.981Z,141.15
2022-12-31T16:30:35.817Z,135.48
2022-12-31T16:33:05.625Z,150.35
2022-12-31T16:35:35.072Z,148.48
2022-12-31T16:38:10.742Z,149.02
2022-12-31T16:40:38.659Z,150.50
2022-12-31T16:43:29.697Z,188.00
2022-12-31T16:45:59.223Z,162.90
2022-12-31T16:48:26.745Z,181.63
2022-12-31T16:50:55.946Z,188.55
2022-12-31T16:53:26.265Z,241.27
2022-12-31T16:56:01.814Z,155.07
2022-12-31T16:58:33.585Z,63.33
2022-12-31T17:01:16.193Z,83.53
2022-12-31T17:03:46.871Z,101.32
2022-12-31T17:06:19.053Z,54.75
2022-12-31T17:08:49.583Z,136.63
2022-12-31T17:11:24.025Z,98.68
2022-12-31T17:14:05.893Z,113.88
2022-12-31T17:16:35.584Z,124.38
2022-12-31T17:19:03.487Z,104.90
2022-12-31T17:21:32.543Z,87.93
2022-12-31T17:24:06.027Z,71.13
2022-12-31T17:26:38.408Z,122.30
2022-12-31T17:29:06.100Z,144.50
2022-12-31T17:31:38.585Z,145.82
2022-12-31T17:34:14.457Z,173.32
2022-12-31T17:36:54.637Z,229.00
2022-12-31T17:39:23.440Z,215.68
2022-12-31T17:41:52.792Z,198.70
2022-12-31T17:44:29.416Z,164.13
2022-12-31T17:46:56.585Z,129.23
2022-12-31T17:49:29.652Z,94.30
2022-12-31T17:51:56.561Z,124.95
2022-12-31T17:54:23.623Z,140.07
2022-12-31T17:56:51.823Z,140.32
2022-12-31T17:59:22.735Z,120.85
2022-12-31T18:01:50.136Z,109.40
2022-12-31T18:04:19.252Z,89.95
2022-12-31T18:06:46.124Z,82.72
2022-12-31T18:09:13.025Z,70.78
2022-12-31T18:11:40.917Z,63.10
2022-12-31T18:14:07.926Z,54.65
2022-12-31T18:16:34.923Z,68.65
2022-12-31T18:19:02.048Z,67.20
2022-12-31T18:21:34.631Z,61.78
2022-12-31T18:26:32.753Z,50.88
2022-12-31T18:29:10.908Z,50.60
2022-12-31T18:31:37.843Z,53.30
2022-12-31T18:34:04.763Z,54.42
2022-12-31T18:36:31.550Z,48.67
2022-12-31T18:38:58.367Z,52.97
2022-12-31T18:41:33.236Z,63.50
2022-12-31T18:44:00.068Z,68.32
2022-12-31T18:46:27.836Z,68.28
2022-12-31T18:48:54.700Z,66.82
2022-12-31T18:51:31.405Z,77.28
2022-12-31T18:54:01.149Z,66.00
2022-12-31T18:56:28.501Z,63.38
2022-12-31T18:58:55.379Z,78.20
2022-12-31T19:01:32.932Z,68.15
2022-12-31T19:04:27.024Z,79.38
2022-12-31T19:06:55.420Z,98.25
2022-12-31T19:12:13.651Z,124.80
2022-12-31T19:14:40.576Z,140.23
2022-12-31T19:19:34.908Z,73.40
2022-12-31T19:22:02.875Z,79.80
2022-12-31T19:24:30.245Z,79.40
2022-12-31T19:26:57.235Z,84.72
2022-12-31T19:29:26.426Z,95.75
2022-12-31T19:31:53.986Z,83.45
2022-12-31T19:34:21.315Z,77.88
2022-12-31T19:36:48.120Z,71.65
2022-12-31T19:39:18.278Z,64.93
2022-12-31T19:41:46.142Z,63.08
2022-12-31T19:44:17.897Z,72.28
2022-12-31T19:46:46.377Z,64.25
2022-12-31T19:49:14.389Z,52.00
2022-12-31T19:51:41.933Z,48.53
2022-12-31T19:54:09.047Z,60.20
2022-12-31T19:56:36.082Z,54.10
2022-12-31T19:59:08.360Z,48.25
2022-12-31T20:01:35.511Z,57.70
2022-12-31T20:04:02.446Z,48.10
2022-12-31T20:06:29.353Z,48.95
2022-12-31T20:08:56.259Z,51.22
2022-12-31T20:11:24.861Z,75.93
2022-12-31T20:13:53.701Z,63.78
2022-12-31T20:16:23.507Z,51.10
2022-12-31T20:18:50.861Z,62.00
2022-12-31T20:21:20.982Z,66.53
2022-12-31T20:23:49.326Z,65.85
2022-12-31T20:26:16.943Z,61.53
2022-12-31T20:28:43.894Z,65.75
2022-12-31T20:31:13.516Z,64.63
2022-12-31T20:33:41.000Z,59.70
2022-12-31T20:36:10.794Z,60.58
2022-12-31T20:38:38.137Z,68.57
2022-12-31T20:41:07.488Z,86.32
2022-12-31T20:43:35.198Z,91.88
2022-12-31T20:46:15.699Z,96.70
2022-12-31T20:48:44.600Z,88.88
2022-12-31T20:51:13.024Z,94.95
2022-12-31T20:53:40.229Z,91.47
2022-12-31T20:56:08.654Z,88.10
2022-12-31T20:58:35.959Z,97.60
2022-12-31T21:01:06.522Z,124.07
2022-12-31T21:06:22.992Z,96.18
2022-12-31T21:08:49.819Z,104.28
2022-12-31T21:11:35.367Z,103.78
2022-12-31T21:14:02.760Z,86.07
2022-12-31T21:16:29.933Z,87.72
2022-12-31T21:18:56.726Z,97.50
2022-12-31T21:21:24.089Z,93.75
2022-12-31T21:23:51.013Z,89.57
2022-12-31T21:26:17.936Z,99.63
2022-12-31T21:28:45.514Z,101.00
2022-12-31T21:31:14.322Z,106.10
2022-12-31T21:33:45.855Z,91.90
2022-12-31T21:36:13.696Z,102.50
2022-12-31T21:38:40.825Z,96.10
2022-12-31T21:41:09.384Z,76.55
2022-12-31T21:43:36.245Z,41.38
2022-12-31T21:46:05.169Z,48.92
2022-12-31T21:48:32.139Z,61.15
2022-12-31T21:51:12.913Z,35.88
2022-12-31T21:53:40.355Z,38.47
2022-12-31T21:56:08.665Z,37.58
2022-12-31T21:58:37.240Z,33.90
2022-12-31T22:01:23.196Z,35.20
2022-12-31T22:03:50.545Z,45.28
2022-12-31T22:06:22.746Z,69.72
2022-12-31T22:08:51.979Z,57.10
2022-12-31T22:11:21.077Z,51.92
2022-12-31T22:13:48.498Z,43.30
2022-12-31T22:16:17.193Z,37.17
2022-12-31T22:18:44.482Z,32.63
2022-12-31T22:21:29.546Z,31.85
2022-12-31T22:23:58.780Z,31.08
2022-12-31T22:26:28.569Z,31.58
2022-12-31T22:28:59.776Z,28.35
2022-12-31T22:31:30.139Z,25.50
2022-12-31T22:33:58.545Z,53.35
2022-12-31T22:36:26.591Z,58.45
2022-12-31T22:38:58.326Z,48.65
2022-12-31T22:41:26.782Z,51.67
2022-12-31T22:44:02.594Z,38.50
2022-12-31T22:46:29.907Z,49.00
2022-12-31T22:48:58.611Z,32.45
2022-12-31T22:51:55.024Z,40.67
2022-12-31T22:54:13.942Z,33.13
2022-12-31T22:56:41.325Z,36.42
2022-12-31T22:59:08.327Z,39.13
2022-12-31T23:01:35.252Z,48.35
2022-12-31T23:04:02.306Z,70.93
2022-12-31T23:06:29.447Z,43.90
2022-12-31T23:09:14.799Z,75.43
2022-12-31T23:11:43.359Z,88.60
2022-12-31T23:14:34.795Z,92.03
2022-12-31T23:17:30.016Z,44.53
2022-12-31T23:20:18.961Z,34.83
2022-12-31T23:23:06.036Z,25.33
2022-12-31T23:25:38.399Z,25.83
2022-12-31T23:30:33.123Z,23.42
2022-12-31T23:33:00.110Z,23.83
2022-12-31T23:35:26.971Z,24.67
2022-12-31T23:37:53.843Z,24.77
2022-12-31T23:40:21.777Z,25.08
2022-12-31T23:42:50.285Z,29.48
2022-12-31T23:45:17.314Z,32.40
2022-12-31T23:47:44.110Z,27.08
2022-12-31T23:50:10.929Z,29.58
2022-12-31T23:52:37.784Z,34.17
2022-12-31T23:55:04.994Z,34.47
2022-12-31T23:57:32.101Z,28.67
2022-12-31T23:59:59.014Z,28.27
